sensor_id;sensor_type;location;lat;lon;timestamp;pressure;altitude;pressure_sealevel;temperature;humidity
216;BME280;64590;48.81286795;9.14184224;2022-12-24T00:01:30;97740.28;;;11.52;72.08
216;BME280;64590;48.81286795;9.14184224;2022-12-24T00:03:56;97739.84;;;11.57;72.32
216;BME280;64590;48.81286795;9.14184224;2022-12-24T00:06:23;97730.59;;;11.30;73.85
216;BME280;64590;48.81286795;9.14184224;2022-12-24T00:08:51;97746.19;;;11.54;72.38
216;BME280;64590;48.81286795;9.14184224;2022-12-24T00:11:18;97739.94;;;11.47;72.48
216;BME280;64590;48.81286795;9.14184224;2022-12-24T00:13:45;97745.03;;;11.52;73.64
216;BME280;64590;48.81286795;9.14184224;2022-12-24T00:16:11;97722.78;;;11.55;72.02
216;BME280;64590;48.81286795;9.14184224;2022-12-24T00:18:38;97737.53;;;11.49;71.25
216;BME280;64590;48.81286795;9.14184224;2022-12-24T00:21:04;97745.41;;;11.54;71.45
216;BME280;64590;48.81286795;9.14184224;2022-12-24T00:23:31;97743.34;;;11.61;70.06
216;BME280;64590;48.81286795;9.14184224;2022-12-24T00:25:59;97740.53;;;11.65;70.24
216;BME280;64590;48.81286795;9.14184224;2022-12-24T00:28:26;97744.41;;;11.71;70.65
216;BME280;64590;48.81286795;9.14184224;2022-12-24T00:30:52;97745.69;;;11.63;70.59
216;BME280;64590;48.81286795;9.14184224;2022-12-24T00:33:19;97740.94;;;11.64;71.01
216;BME280;64590;48.81286795;9.14184224;2022-12-24T00:35:49;97741.31;;;11.66;70.32
216;BME280;64590;48.81286795;9.14184224;2022-12-24T00:38:15;97742.13;;;11.63;70.34
216;BME280;64590;48.81286795;9.14184224;2022-12-24T00:40:42;97744.97;;;11.59;70.47
216;BME280;64590;48.81286795;9.14184224;2022-12-24T00:43:10;97751.38;;;11.56;71.43
216;BME280;64590;48.81286795;9.14184224;2022-12-24T00:45:36;97752.47;;;11.62;71.43
216;BME280;64590;48.81286795;9.14184224;2022-12-24T00:48:03;97754.94;;;11.56;70.71
216;BME280;64590;48.81286795;9.14184224;2022-12-24T00:50:29;97740.81;;;11.40;71.49
216;BME280;64590;48.81286795;9.14184224;2022-12-24T00:52:56;97751.13;;;11.40;71.33
216;BME280;64590;48.81286795;9.14184224;2022-12-24T00:55:23;97757.66;;;11.22;73.10
216;BME280;64590;48.81286795;9.14184224;2022-12-24T00:57:49;97772.97;;;11.38;72.03
216;BME280;64590;48.81286795;9.14184224;2022-12-24T01:00:18;97773.81;;;11.35;72.04
216;BME280;64590;48.81286795;9.14184224;2022-12-24T01:02:45;97769.09;;;11.28;72.22
216;BME280;64590;48.81286795;9.14184224;2022-12-24T01:05:11;97788.03;;;11.40;71.87
216;BME280;64590;48.81286795;9.14184224;2022-12-24T01:07:41;97790.84;;;11.37;71.73
216;BME280;64590;48.81286795;9.14184224;2022-12-24T01:10:09;97795.97;;;11.42;71.13
216;BME280;64590;48.81286795;9.14184224;2022-12-24T01:12:36;97804.78;;;11.33;72.33
216;BME280;64590;48.81286795;9.14184224;2022-12-24T01:15:04;97817.41;;;11.41;72.36
216;BME280;64590;48.81286795;9.14184224;2022-12-24T01:17:32;97806.97;;;11.56;72.89
216;BME280;64590;48.81286795;9.14184224;2022-12-24T01:19:59;97822.03;;;11.55;71.78
216;BME280;64590;48.81286795;9.14184224;2022-12-24T01:22:26;97821.28;;;11.51;72.42
216;BME280;64590;48.81286795;9.14184224;2022-12-24T01:24:53;97828.06;;;11.46;73.13
216;BME280;64590;48.81286795;9.14184224;2022-12-24T01:27:20;97837.66;;;11.42;74.16
216;BME280;64590;48.81286795;9.14184224;2022-12-24T01:29:46;97842.84;;;11.40;74.17
216;BME280;64590;48.81286795;9.14184224;2022-12-24T01:32:13;97846.94;;;11.24;74.72
216;BME280;64590;48.81286795;9.14184224;2022-12-24T01:34:41;97859.06;;;11.45;74.20
216;BME280;64590;48.81286795;9.14184224;2022-12-24T01:37:07;97881.00;;;11.32;76.00
216;BME280;64590;48.81286795;9.14184224;2022-12-24T01:39:34;97870.50;;;11.06;80.12
216;BME280;64590;48.81286795;9.14184224;2022-12-24T01:42:01;97886.31;;;10.39;83.55
216;BME280;64590;48.81286795;9.14184224;2022-12-24T01:44:53;97884.78;;;10.13;87.48
216;BME280;64590;48.81286795;9.14184224;2022-12-24T01:47:22;97890.34;;;10.06;87.78
216;BME280;64590;48.81286795;9.14184224;2022-12-24T01:49:55;97893.88;;;10.13;87.89
216;BME280;64590;48.81286795;9.14184224;2022-12-24T01:52:25;97902.59;;;10.19;87.54
216;BME280;64590;48.81286795;9.14184224;2022-12-24T01:54:56;97905.00;;;10.10;86.17
216;BME280;64590;48.81286795;9.14184224;2022-12-24T01:57:27;97912.91;;;10.18;86.14
216;BME280;64590;48.81286795;9.14184224;2022-12-24T01:59:58;97922.00;;;10.15;87.25
216;BME280;64590;48.81286795;9.14184224;2022-12-24T02:02:26;97937.06;;;10.29;86.12
216;BME280;64590;48.81286795;9.14184224;2022-12-24T02:04:57;97937.06;;;10.14;86.38
216;BME280;64590;48.81286795;9.14184224;2022-12-24T02:07:27;97941.44;;;9.98;87.22
216;BME280;64590;48.81286795;9.14184224;2022-12-24T02:09:58;97933.94;;;9.87;88.10
216;BME280;64590;48.81286795;9.14184224;2022-12-24T02:12:26;97935.94;;;9.87;88.00
216;BME280;64590;48.81286795;9.14184224;2022-12-24T02:14:55;97936.72;;;9.84;88.08
216;BME280;64590;48.81286795;9.14184224;2022-12-24T02:17:28;97915.72;;;9.94;nan
216;BME280;64590;48.81286795;9.14184224;2022-12-24T02:20:20;97915.31;;;10.02;87.32
216;BME280;64590;48.81286795;9.14184224;2022-12-24T02:23:06;97909.34;;;10.07;87.30
216;BME280;64590;48.81286795;9.14184224;2022-12-24T02:25:47;97911.38;;;9.93;88.45
216;BME280;64590;48.81286795;9.14184224;2022-12-24T02:28:31;97923.63;;;10.06;86.74
216;BME280;64590;48.81286795;9.14184224;2022-12-24T02:31:03;97935.91;;;10.01;86.52
216;BME280;64590;48.81286795;9.14184224;2022-12-24T02:33:36;97937.09;;;10.00;86.26
216;BME280;64590;48.81286795;9.14184224;2022-12-24T02:36:11;97924.44;;;9.99;85.83
216;BME280;64590;48.81286795;9.14184224;2022-12-24T02:38:43;97918.50;;;9.86;85.93
216;BME280;64590;48.81286795;9.14184224;2022-12-24T02:41:15;97922.84;;;9.98;86.43
216;BME280;64590;48.81286795;9.14184224;2022-12-24T02:43:45;97911.00;;;9.83;86.51
216;BME280;64590;48.81286795;9.14184224;2022-12-24T02:46:17;97947.81;;;9.84;88.00
216;BME280;64590;48.81286795;9.14184224;2022-12-24T02:48:46;97949.78;;;9.80;87.60
216;BME280;64590;48.81286795;9.14184224;2022-12-24T02:51:14;97963.28;;;9.74;87.60
216;BME280;64590;48.81286795;9.14184224;2022-12-24T02:53:41;97966.81;;;9.68;87.85
216;BME280;64590;48.81286795;9.14184224;2022-12-24T02:56:26;97971.16;;;9.44;88.33
216;BME280;64590;48.81286795;9.14184224;2022-12-24T02:59:19;97975.53;;;9.41;87.83
216;BME280;64590;48.81286795;9.14184224;2022-12-24T03:01:56;97969.56;;;9.35;87.70
216;BME280;64590;48.81286795;9.14184224;2022-12-24T03:04:33;97970.72;;;9.17;88.88
216;BME280;64590;48.81286795;9.14184224;2022-12-24T03:07:11;97971.50;;;9.14;88.66
216;BME280;64590;48.81286795;9.14184224;2022-12-24T03:09:49;97982.59;;;9.24;88.59
216;BME280;64590;48.81286795;9.14184224;2022-12-24T03:12:22;97981.41;;;9.29;88.26
216;BME280;64590;48.81286795;9.14184224;2022-12-24T03:14:52;97984.19;;;9.25;88.22
216;BME280;64590;48.81286795;9.14184224;2022-12-24T03:17:20;97986.19;;;9.21;88.07
216;BME280;64590;48.81286795;9.14184224;2022-12-24T03:19:47;97993.69;;;9.24;87.83
216;BME280;64590;48.81286795;9.14184224;2022-12-24T03:22:14;97992.47;;;9.18;88.21
216;BME280;64590;48.81286795;9.14184224;2022-12-24T03:24:43;98007.13;;;9.15;87.75
216;BME280;64590;48.81286795;9.14184224;2022-12-24T03:27:10;98010.63;;;9.01;88.83
216;BME280;64590;48.81286795;9.14184224;2022-12-24T03:29:38;98001.97;;;9.14;88.01
216;BME280;64590;48.81286795;9.14184224;2022-12-24T03:32:04;98008.66;;;9.05;88.16
216;BME280;64590;48.81286795;9.14184224;2022-12-24T03:34:32;97992.84;;;9.06;88.19
216;BME280;64590;48.81286795;9.14184224;2022-12-24T03:36:59;98001.13;;;9.02;88.86
216;BME280;64590;48.81286795;9.14184224;2022-12-24T03:39:26;98002.03;;;9.46;86.92
216;BME280;64590;48.81286795;9.14184224;2022-12-24T03:41:52;98004.81;;;9.39;86.70
216;BME280;64590;48.81286795;9.14184224;2022-12-24T03:44:19;98011.53;;;9.52;86.04
216;BME280;64590;48.81286795;9.14184224;2022-12-24T03:46:45;98010.75;;;9.41;87.03
216;BME280;64590;48.81286795;9.14184224;2022-12-24T03:49:12;98017.44;;;9.32;87.36
216;BME280;64590;48.81286795;9.14184224;2022-12-24T03:51:40;98011.50;;;9.34;87.82
216;BME280;64590;48.81286795;9.14184224;2022-12-24T03:54:06;98003.22;;;9.41;87.21
216;BME280;64590;48.81286795;9.14184224;2022-12-24T03:56:33;97999.63;;;9.23;88.11
216;BME280;64590;48.81286795;9.14184224;2022-12-24T03:58:59;98001.63;;;9.33;87.90
216;BME280;64590;48.81286795;9.14184224;2022-12-24T04:01:26;97997.66;;;9.34;87.77
216;BME280;64590;48.81286795;9.14184224;2022-12-24T04:03:52;98004.44;;;9.47;87.22
216;BME280;64590;48.81286795;9.14184224;2022-12-24T04:06:19;98004.38;;;9.33;87.89
216;BME280;64590;48.81286795;9.14184224;2022-12-24T04:08:47;98001.22;;;9.31;88.28
216;BME280;64590;48.81286795;9.14184224;2022-12-24T04:11:15;98003.22;;;9.48;87.29
216;BME280;64590;48.81286795;9.14184224;2022-12-24T04:13:42;98013.47;;;9.37;87.65
216;BME280;64590;48.81286795;9.14184224;2022-12-24T04:16:10;98012.72;;;9.40;87.82
216;BME280;64590;48.81286795;9.14184224;2022-12-24T04:18:38;98003.22;;;9.41;87.84
216;BME280;64590;48.81286795;9.14184224;2022-12-24T04:21:06;98005.97;;;9.45;87.53
216;BME280;64590;48.81286795;9.14184224;2022-12-24T04:23:35;98017.88;;;9.63;86.47
216;BME280;64590;48.81286795;9.14184224;2022-12-24T04:26:05;98023.03;;;9.72;85.97
216;BME280;64590;48.81286795;9.14184224;2022-12-24T04:28:32;98026.59;;;9.79;85.62
216;BME280;64590;48.81286795;9.14184224;2022-12-24T04:31:00;98014.72;;;9.72;85.92
216;BME280;64590;48.81286795;9.14184224;2022-12-24T04:33:27;98021.06;;;9.76;85.78
216;BME280;64590;48.81286795;9.14184224;2022-12-24T04:35:56;98014.72;;;9.79;85.60
216;BME280;64590;48.81286795;9.14184224;2022-12-24T04:38:23;98016.31;;;9.66;86.35
216;BME280;64590;48.81286795;9.14184224;2022-12-24T04:40:57;98024.63;;;9.94;85.55
216;BME280;64590;48.81286795;9.14184224;2022-12-24T04:43:25;98019.09;;;9.76;86.45
216;BME280;64590;48.81286795;9.14184224;2022-12-24T04:45:51;98027.78;;;9.78;86.24
216;BME280;64590;48.81286795;9.14184224;2022-12-24T04:48:18;98033.34;;;9.96;85.45
216;BME280;64590;48.81286795;9.14184224;2022-12-24T04:50:44;98023.41;;;9.63;86.40
216;BME280;64590;48.81286795;9.14184224;2022-12-24T04:53:11;98030.16;;;9.69;86.91
216;BME280;64590;48.81286795;9.14184224;2022-12-24T04:55:43;98030.94;;;9.59;87.32
216;BME280;64590;48.81286795;9.14184224;2022-12-24T04:58:09;98036.88;;;9.72;87.09
216;BME280;64590;48.81286795;9.14184224;2022-12-24T05:00:37;98047.59;;;9.66;87.53
216;BME280;64590;48.81286795;9.14184224;2022-12-24T05:03:04;98038.09;;;9.56;87.75
216;BME280;64590;48.81286795;9.14184224;2022-12-24T05:05:31;98046.03;;;9.83;85.15
216;BME280;64590;48.81286795;9.14184224;2022-12-24T05:08:04;98037.69;;;9.61;84.57
216;BME280;64590;48.81286795;9.14184224;2022-12-24T05:10:30;98042.47;;;9.86;82.91
216;BME280;64590;48.81286795;9.14184224;2022-12-24T05:12:57;98025.44;;;9.73;84.57
216;BME280;64590;48.81286795;9.14184224;2022-12-24T05:15:24;98031.34;;;9.68;85.01
216;BME280;64590;48.81286795;9.14184224;2022-12-24T05:17:52;98045.22;;;9.65;85.09
216;BME280;64590;48.81286795;9.14184224;2022-12-24T05:20:18;98052.34;;;9.66;84.62
216;BME280;64590;48.81286795;9.14184224;2022-12-24T05:22:45;98040.81;;;9.53;84.57
216;BME280;64590;48.81286795;9.14184224;2022-12-24T05:25:33;98027.38;;;9.51;84.44
216;BME280;64590;48.81286795;9.14184224;2022-12-24T05:28:19;98042.81;;;9.59;83.89
216;BME280;64590;48.81286795;9.14184224;2022-12-24T05:30:46;98036.88;;;9.61;83.09
216;BME280;64590;48.81286795;9.14184224;2022-12-24T05:33:14;98038.09;;;9.71;82.26
216;BME280;64590;48.81286795;9.14184224;2022-12-24T05:35:40;98041.25;;;9.73;81.91
216;BME280;64590;48.81286795;9.14184224;2022-12-24T05:38:07;98037.31;;;9.77;81.01
216;BME280;64590;48.81286795;9.14184224;2022-12-24T05:40:33;98034.53;;;9.74;82.14
216;BME280;64590;48.81286795;9.14184224;2022-12-24T05:43:00;98044.00;;;9.73;81.74
216;BME280;64590;48.81286795;9.14184224;2022-12-24T05:45:27;98037.69;;;9.79;81.16
216;BME280;64590;48.81286795;9.14184224;2022-12-24T05:47:54;98036.91;;;9.86;79.56
216;BME280;64590;48.81286795;9.14184224;2022-12-24T05:50:21;98035.72;;;9.76;80.86
216;BME280;64590;48.81286795;9.14184224;2022-12-24T05:53:03;98044.84;;;9.73;80.79
216;BME280;64590;48.81286795;9.14184224;2022-12-24T05:55:29;98043.25;;;9.83;78.74
216;BME280;64590;48.81286795;9.14184224;2022-12-24T05:57:56;98049.97;;;9.85;78.92
216;BME280;64590;48.81286795;9.14184224;2022-12-24T06:00:23;98055.53;;;9.89;78.47
216;BME280;64590;48.81286795;9.14184224;2022-12-24T06:02:49;98049.97;;;9.89;78.10
216;BME280;64590;48.81286795;9.14184224;2022-12-24T06:05:16;98031.75;;;9.70;79.68
216;BME280;64590;48.81286795;9.14184224;2022-12-24T06:07:44;98046.41;;;9.67;79.28
216;BME280;64590;48.81286795;9.14184224;2022-12-24T06:10:10;98051.16;;;9.67;80.72
216;BME280;64590;48.81286795;9.14184224;2022-12-24T06:12:37;98055.53;;;9.82;78.04
216;BME280;64590;48.81286795;9.14184224;2022-12-24T06:15:05;98063.44;;;9.87;76.95
216;BME280;64590;48.81286795;9.14184224;2022-12-24T06:17:31;98058.28;;;9.89;77.11
216;BME280;64590;48.81286795;9.14184224;2022-12-24T06:19:58;98059.06;;;9.72;78.95
216;BME280;64590;48.81286795;9.14184224;2022-12-24T06:22:25;98067.81;;;9.91;77.12
216;BME280;64590;48.81286795;9.14184224;2022-12-24T06:24:53;98067.38;;;9.72;78.56
216;BME280;64590;48.81286795;9.14184224;2022-12-24T06:27:19;98070.56;;;9.81;77.95
216;BME280;64590;48.81286795;9.14184224;2022-12-24T06:29:46;98061.47;;;9.87;77.47
216;BME280;64590;48.81286795;9.14184224;2022-12-24T06:32:13;98076.13;;;9.95;75.63
216;BME280;64590;48.81286795;9.14184224;2022-12-24T06:34:39;98080.09;;;9.90;76.31
216;BME280;64590;48.81286795;9.14184224;2022-12-24T06:37:06;98082.06;;;9.86;76.81
216;BME280;64590;48.81286795;9.14184224;2022-12-24T06:39:32;98089.19;;;9.73;78.10
216;BME280;64590;48.81286795;9.14184224;2022-12-24T06:42:00;98095.09;;;9.65;79.67
216;BME280;64590;48.81286795;9.14184224;2022-12-24T06:44:27;98102.56;;;9.50;81.50
216;BME280;64590;48.81286795;9.14184224;2022-12-24T06:46:53;98110.47;;;9.41;81.55
216;BME280;64590;48.81286795;9.14184224;2022-12-24T06:49:20;98121.22;;;9.56;81.11
216;BME280;64590;48.81286795;9.14184224;2022-12-24T06:51:46;98118.84;;;9.69;79.93
216;BME280;64590;48.81286795;9.14184224;2022-12-24T06:54:13;98124.34;;;9.51;80.60
216;BME280;64590;48.81286795;9.14184224;2022-12-24T06:56:40;98130.69;;;9.52;81.07
216;BME280;64590;48.81286795;9.14184224;2022-12-24T06:59:07;98130.25;;;9.39;81.95
216;BME280;64590;48.81286795;9.14184224;2022-12-24T07:01:34;98132.56;;;9.26;82.69
216;BME280;64590;48.81286795;9.14184224;2022-12-24T07:04:00;98124.22;;;9.19;82.94
216;BME280;64590;48.81286795;9.14184224;2022-12-24T07:06:28;98129.38;;;9.24;83.32
216;BME280;64590;48.81286795;9.14184224;2022-12-24T07:08:55;98120.22;;;9.10;83.75
216;BME280;64590;48.81286795;9.14184224;2022-12-24T07:11:23;98128.91;;;9.08;84.43
216;BME280;64590;48.81286795;9.14184224;2022-12-24T07:13:50;98142.31;;;8.95;84.78
216;BME280;64590;48.81286795;9.14184224;2022-12-24T07:16:18;98145.91;;;9.10;84.65
216;BME280;64590;48.81286795;9.14184224;2022-12-24T07:18:46;98157.09;;;9.24;83.96
216;BME280;64590;48.81286795;9.14184224;2022-12-24T07:21:13;98153.88;;;9.19;84.54
216;BME280;64590;48.81286795;9.14184224;2022-12-24T07:23:39;98152.59;;;8.95;85.18
216;BME280;64590;48.81286795;9.14184224;2022-12-24T07:26:06;98162.94;;;9.09;84.52
216;BME280;64590;48.81286795;9.14184224;2022-12-24T07:28:33;98168.34;;;8.91;84.70
216;BME280;64590;48.81286795;9.14184224;2022-12-24T07:31:00;98168.72;;;8.86;85.22
216;BME280;64590;48.81286795;9.14184224;2022-12-24T07:33:28;98183.72;;;8.85;85.04
216;BME280;64590;48.81286795;9.14184224;2022-12-24T07:36:00;98191.47;;;8.61;85.65
216;BME280;64590;48.81286795;9.14184224;2022-12-24T07:38:27;98179.69;;;8.71;85.49
216;BME280;64590;48.81286795;9.14184224;2022-12-24T07:40:53;98175.81;;;8.80;84.87
216;BME280;64590;48.81286795;9.14184224;2022-12-24T07:43:20;98170.63;;;8.74;85.66
216;BME280;64590;48.81286795;9.14184224;2022-12-24T07:45:47;98174.91;;;8.68;85.02
216;BME280;64590;48.81286795;9.14184224;2022-12-24T07:48:13;98183.13;;;8.54;85.68
216;BME280;64590;48.81286795;9.14184224;2022-12-24T07:50:41;98185.09;;;8.57;85.39
216;BME280;64590;48.81286795;9.14184224;2022-12-24T07:53:08;98183.84;;;8.47;85.67
216;BME280;64590;48.81286795;9.14184224;2022-12-24T07:55:35;98187.06;;;8.53;85.52
216;BME280;64590;48.81286795;9.14184224;2022-12-24T07:58:02;98189.13;;;8.63;85.15
216;BME280;64590;48.81286795;9.14184224;2022-12-24T08:00:28;98189.38;;;8.47;86.04
216;BME280;64590;48.81286795;9.14184224;2022-12-24T08:02:55;98197.38;;;8.60;85.87
216;BME280;64590;48.81286795;9.14184224;2022-12-24T08:05:24;98190.72;;;8.68;85.00
216;BME280;64590;48.81286795;9.14184224;2022-12-24T08:07:52;98194.72;;;8.70;85.24
216;BME280;64590;48.81286795;9.14184224;2022-12-24T08:10:19;98190.84;;;8.86;84.40
216;BME280;64590;48.81286795;9.14184224;2022-12-24T08:12:45;98197.59;;;8.88;84.31
216;BME280;64590;48.81286795;9.14184224;2022-12-24T08:15:12;98205.66;;;9.11;82.97
216;BME280;64590;48.81286795;9.14184224;2022-12-24T08:17:39;98206.38;;;9.01;83.32
216;BME280;64590;48.81286795;9.14184224;2022-12-24T08:20:07;98213.56;;;9.09;83.48
216;BME280;64590;48.81286795;9.14184224;2022-12-24T08:22:33;98205.94;;;8.92;83.73
216;BME280;64590;48.81286795;9.14184224;2022-12-24T08:25:01;98205.91;;;8.88;84.06
216;BME280;64590;48.81286795;9.14184224;2022-12-24T08:27:28;98206.84;;;9.10;82.99
216;BME280;64590;48.81286795;9.14184224;2022-12-24T08:29:55;98221.47;;;9.11;83.11
216;BME280;64590;48.81286795;9.14184224;2022-12-24T08:32:21;98222.69;;;9.13;83.13
216;BME280;64590;48.81286795;9.14184224;2022-12-24T08:34:48;98223.50;;;9.21;83.31
216;BME280;64590;48.81286795;9.14184224;2022-12-24T08:37:14;98205.63;;;9.04;83.88
216;BME280;64590;48.81286795;9.14184224;2022-12-24T08:39:42;98228.59;;;9.12;84.13
216;BME280;64590;48.81286795;9.14184224;2022-12-24T08:42:10;98238.59;;;9.23;83.53
216;BME280;64590;48.81286795;9.14184224;2022-12-24T08:44:36;98231.75;;;9.10;83.97
216;BME280;64590;48.81286795;9.14184224;2022-12-24T08:47:03;98232.22;;;9.19;84.00
216;BME280;64590;48.81286795;9.14184224;2022-12-24T08:49:30;98231.78;;;9.14;84.03
216;BME280;64590;48.81286795;9.14184224;2022-12-24T08:51:56;98236.03;;;9.00;84.71
216;BME280;64590;48.81286795;9.14184224;2022-12-24T08:54:23;98242.31;;;8.94;85.28
216;BME280;64590;48.81286795;9.14184224;2022-12-24T08:56:50;98250.34;;;9.10;84.99
216;BME280;64590;48.81286795;9.14184224;2022-12-24T08:59:18;98252.31;;;9.05;84.23
216;BME280;64590;48.81286795;9.14184224;2022-12-24T09:01:45;98248.41;;;9.17;83.96
216;BME280;64590;48.81286795;9.14184224;2022-12-24T09:04:11;98244.47;;;9.15;83.76
216;BME280;64590;48.81286795;9.14184224;2022-12-24T09:06:38;98253.97;;;9.17;83.69
216;BME280;64590;48.81286795;9.14184224;2022-12-24T09:09:05;98264.56;;;9.04;84.15
216;BME280;64590;48.81286795;9.14184224;2022-12-24T09:11:33;98260.28;;;9.18;83.96
216;BME280;64590;48.81286795;9.14184224;2022-12-24T09:14:00;98263.84;;;9.18;83.69
216;BME280;64590;48.81286795;9.14184224;2022-12-24T09:16:28;98267.19;;;9.42;82.55
216;BME280;64590;48.81286795;9.14184224;2022-12-24T09:18:55;98270.41;;;9.54;82.33
216;BME280;64590;48.81286795;9.14184224;2022-12-24T09:21:22;98268.84;;;9.57;81.71
216;BME280;64590;48.81286795;9.14184224;2022-12-24T09:23:49;98277.66;;;9.73;80.96
216;BME280;64590;48.81286795;9.14184224;2022-12-24T09:26:17;98271.25;;;9.58;81.71
216;BME280;64590;48.81286795;9.14184224;2022-12-24T09:28:44;98273.25;;;9.69;80.88
216;BME280;64590;48.81286795;9.14184224;2022-12-24T09:31:12;98277.22;;;9.71;80.51
216;BME280;64590;48.81286795;9.14184224;2022-12-24T09:33:41;98289.09;;;9.65;81.42
216;BME280;64590;48.81286795;9.14184224;2022-12-24T09:36:08;98283.50;;;9.61;81.43
216;BME280;64590;48.81286795;9.14184224;2022-12-24T09:38:36;98287.53;;;9.71;81.11
216;BME280;64590;48.81286795;9.14184224;2022-12-24T09:41:10;98283.59;;;9.75;81.21
216;BME280;64590;48.81286795;9.14184224;2022-12-24T09:43:38;98284.47;;;9.97;79.94
216;BME280;64590;48.81286795;9.14184224;2022-12-24T09:46:08;98286.84;;;9.91;80.15
216;BME280;64590;48.81286795;9.14184224;2022-12-24T09:48:43;98283.31;;;10.02;79.22
216;BME280;64590;48.81286795;9.14184224;2022-12-24T09:51:17;98271.03;;;9.99;81.07
216;BME280;64590;48.81286795;9.14184224;2022-12-24T09:53:49;98284.06;;;9.91;81.73
216;BME280;64590;48.81286795;9.14184224;2022-12-24T09:56:19;98276.19;;;10.04;79.62
216;BME280;64590;48.81286795;9.14184224;2022-12-24T09:58:48;98286.53;;;10.14;78.16
216;BME280;64590;48.81286795;9.14184224;2022-12-24T10:01:16;98274.34;;;10.40;76.76
216;BME280;64590;48.81286795;9.14184224;2022-12-24T10:03:45;98279.94;;;10.62;75.80
216;BME280;64590;48.81286795;9.14184224;2022-12-24T10:06:15;98282.75;;;10.80;74.25
216;BME280;64590;48.81286795;9.14184224;2022-12-24T10:08:55;98279.56;;;10.70;76.09
216;BME280;64590;48.81286795;9.14184224;2022-12-24T10:11:34;98269.63;;;10.84;74.05
216;BME280;64590;48.81286795;9.14184224;2022-12-24T10:14:16;98276.41;;;10.90;73.77
216;BME280;64590;48.81286795;9.14184224;2022-12-24T10:16:50;98277.59;;;10.89;73.00
216;BME280;64590;48.81286795;9.14184224;2022-12-24T10:19:31;98285.50;;;10.90;74.53
216;BME280;64590;48.81286795;9.14184224;2022-12-24T10:22:07;98289.06;;;10.73;74.77
216;BME280;64590;48.81286795;9.14184224;2022-12-24T10:24:47;98281.53;;;10.73;75.37
216;BME280;64590;48.81286795;9.14184224;2022-12-24T10:27:17;98291.47;;;10.78;76.35
216;BME280;64590;48.81286795;9.14184224;2022-12-24T10:29:48;98299.38;;;10.94;74.15
216;BME280;64590;48.81286795;9.14184224;2022-12-24T10:32:20;98298.22;;;10.88;72.95
216;BME280;64590;48.81286795;9.14184224;2022-12-24T10:34:54;98308.53;;;10.80;74.41
216;BME280;64590;48.81286795;9.14184224;2022-12-24T10:37:26;98304.16;;;10.86;73.43
216;BME280;64590;48.81286795;9.14184224;2022-12-24T10:39:54;98306.53;;;10.91;73.68
216;BME280;64590;48.81286795;9.14184224;2022-12-24T10:42:26;98308.13;;;10.78;73.43
216;BME280;64590;48.81286795;9.14184224;2022-12-24T10:45:02;98295.03;;;10.86;74.17
216;BME280;64590;48.81286795;9.14184224;2022-12-24T10:47:30;98299.41;;;10.97;71.80
216;BME280;64590;48.81286795;9.14184224;2022-12-24T10:50:03;98305.34;;;10.99;72.21
216;BME280;64590;48.81286795;9.14184224;2022-12-24T10:52:33;98308.53;;;11.01;72.38
216;BME280;64590;48.81286795;9.14184224;2022-12-24T10:55:09;98315.28;;;11.04;73.42
216;BME280;64590;48.81286795;9.14184224;2022-12-24T10:57:37;98312.09;;;11.20;72.04
216;BME280;64590;48.81286795;9.14184224;2022-12-24T11:00:07;98303.75;;;11.09;72.79
216;BME280;64590;48.81286795;9.14184224;2022-12-24T11:02:43;98305.34;;;11.10;72.48
216;BME280;64590;48.81286795;9.14184224;2022-12-24T11:05:26;98291.06;;;11.08;71.63
216;BME280;64590;48.81286795;9.14184224;2022-12-24T11:07:58;98289.09;;;11.05;72.26
216;BME280;64590;48.81286795;9.14184224;2022-12-24T11:10:25;98291.06;;;11.19;72.91
216;BME280;64590;48.81286795;9.14184224;2022-12-24T11:12:52;98297.41;;;11.30;71.61
216;BME280;64590;48.81286795;9.14184224;2022-12-24T11:15:22;98289.88;;;11.16;71.98
216;BME280;64590;48.81286795;9.14184224;2022-12-24T11:17:52;98294.22;;;11.28;71.17
216;BME280;64590;48.81286795;9.14184224;2022-12-24T11:20:24;98301.00;;;11.16;71.54
216;BME280;64590;48.81286795;9.14184224;2022-12-24T11:22:51;98295.41;;;11.20;72.38
216;BME280;64590;48.81286795;9.14184224;2022-12-24T11:25:20;98302.97;;;11.23;72.74
216;BME280;64590;48.81286795;9.14184224;2022-12-24T11:27:49;98305.75;;;11.19;72.08
216;BME280;64590;48.81286795;9.14184224;2022-12-24T11:30:28;98302.19;;;11.15;71.62
216;BME280;64590;48.81286795;9.14184224;2022-12-24T11:33:22;98302.59;;;11.07;72.94
216;BME280;64590;48.81286795;9.14184224;2022-12-24T11:35:53;98306.56;;;11.06;72.50
216;BME280;64590;48.81286795;9.14184224;2022-12-24T11:38:23;98306.16;;;11.18;73.52
216;BME280;64590;48.81286795;9.14184224;2022-12-24T11:40:58;98296.22;;;11.02;74.38
216;BME280;64590;48.81286795;9.14184224;2022-12-24T11:43:25;98292.25;;;11.07;72.79
216;BME280;64590;48.81286795;9.14184224;2022-12-24T11:46:34;98302.56;;;11.10;72.32
216;BME280;64590;48.81286795;9.14184224;2022-12-24T11:49:12;98298.63;;;11.15;73.13
216;BME280;64590;48.81286795;9.14184224;2022-12-24T11:51:59;98305.34;;;11.28;72.45
216;BME280;64590;48.81286795;9.14184224;2022-12-24T11:54:30;98302.97;;;11.26;71.00
216;BME280;64590;48.81286795;9.14184224;2022-12-24T11:57:00;98300.19;;;11.23;73.27
216;BME280;64590;48.81286795;9.14184224;2022-12-24T11:59:30;98296.22;;;11.24;72.12
216;BME280;64590;48.81286795;9.14184224;2022-12-24T12:02:02;98286.72;;;11.21;72.48